createdAt,value
2022-10-07T00:02:09.991Z,20.23
2022-10-07T00:04:37.267Z,18.23
2022-10-07T00:07:04.065Z,17.97
2022-10-07T00:09:30.868Z,21.33
2022-10-07T00:11:57.612Z,17.10
2022-10-07T00:14:24.444Z,20.53
2022-10-07T00:16:51.219Z,21.43
2022-10-07T00:19:18.029Z,19.57
2022-10-07T00:21:44.804Z,22.80
2022-10-07T00:24:11.663Z,17.13
2022-10-07T00:26:38.489Z,22.80
2022-10-07T00:29:06.104Z,16.40
2022-10-07T00:31:35.116Z,14.60
2022-10-07T00:34:02.257Z,17.23
2022-10-07T00:36:31.040Z,16.73
2022-10-07T00:39:04.173Z,17.00
2022-10-07T00:41:34.514Z,23.13
2022-10-07T00:44:22.030Z,21.53
2022-10-07T00:46:48.838Z,21.13
2022-10-07T00:49:15.729Z,22.37
2022-10-07T00:51:42.478Z,19.80
2022-10-07T00:54:12.346Z,26.10
2022-10-07T00:56:39.852Z,21.50
2022-10-07T00:59:06.625Z,8.80
2022-10-07T01:01:33.807Z,16.67
2022-10-07T01:04:00.709Z,15.10
2022-10-07T01:06:27.488Z,17.00
2022-10-07T01:08:54.386Z,16.73
2022-10-07T01:11:33.158Z,21.43
2022-10-07T01:14:29.437Z,15.07
2022-10-07T01:17:03.266Z,19.27
2022-10-07T01:19:45.186Z,13.83
2022-10-07T01:22:15.954Z,19.67
2022-10-07T01:24:57.842Z,14.40
2022-10-07T01:27:24.851Z,15.40
2022-10-07T01:29:57.548Z,14.97
2022-10-07T01:32:45.160Z,17.43
2022-10-07T01:35:17.767Z,10.73
2022-10-07T01:37:47.214Z,17.17
2022-10-07T01:40:18.120Z,21.93
2022-10-07T01:42:45.374Z,16.67
2022-10-07T01:45:13.409Z,21.10
2022-10-07T01:47:42.544Z,16.23
2022-10-07T01:50:13.243Z,15.90
2022-10-07T01:52:44.758Z,18.50
2022-10-07T01:55:36.462Z,17.30
2022-10-07T01:58:31.347Z,14.30
2022-10-07T02:01:09.840Z,20.57
2022-10-07T02:03:37.599Z,16.93
2022-10-07T02:06:40.537Z,14.03
2022-10-07T02:09:20.468Z,13.87
2022-10-07T02:11:47.270Z,17.60
2022-10-07T02:14:20.545Z,14.03
2022-10-07T02:16:48.349Z,17.97
2022-10-07T02:19:22.677Z,19.57
2022-10-07T02:21:50.870Z,14.40
2022-10-07T02:24:18.210Z,10.17
2022-10-07T02:26:45.895Z,17.60
2022-10-07T02:29:13.181Z,20.80
2022-10-07T02:31:41.461Z,18.27
2022-10-07T02:34:09.285Z,17.57
2022-10-07T02:36:45.158Z,16.90
2022-10-07T02:39:12.572Z,17.30
2022-10-07T02:41:48.127Z,17.07
2022-10-07T02:44:26.246Z,26.07
2022-10-07T02:47:03.809Z,17.63
2022-10-07T02:49:31.274Z,17.60
2022-10-07T02:52:09.261Z,15.37
2022-10-07T02:54:47.456Z,18.97
2022-10-07T02:57:15.810Z,15.17
2022-10-07T02:59:43.719Z,19.30
2022-10-07T03:02:13.362Z,21.47
2022-10-07T03:04:40.161Z,16.60
2022-10-07T03:07:06.990Z,16.77
2022-10-07T03:09:33.998Z,18.40
2022-10-07T03:12:00.782Z,18.97
2022-10-07T03:14:28.137Z,19.27
2022-10-07T03:16:54.993Z,14.73
2022-10-07T03:19:21.770Z,19.13
2022-10-07T03:21:48.776Z,15.93
2022-10-07T03:24:16.786Z,17.20
2022-10-07T03:26:43.557Z,25.07
2022-10-07T03:29:10.582Z,22.17
2022-10-07T03:31:37.517Z,18.37
2022-10-07T03:34:04.481Z,18.93
2022-10-07T03:36:31.306Z,19.83
2022-10-07T03:38:58.578Z,18.60
2022-10-07T03:41:25.352Z,13.00
2022-10-07T03:43:52.183Z,16.30
2022-10-07T03:46:19.751Z,16.07
2022-10-07T03:48:46.687Z,15.80
2022-10-07T03:51:13.501Z,15.57
2022-10-07T03:53:40.594Z,12.83
2022-10-07T03:56:07.830Z,20.77
2022-10-07T03:58:34.675Z,19.27
2022-10-07T04:01:09.124Z,24.73
2022-10-07T04:03:35.923Z,14.93
2022-10-07T04:06:03.633Z,12.93
2022-10-07T04:08:32.478Z,14.40
2022-10-07T04:10:59.950Z,17.13
2022-10-07T04:13:26.897Z,16.37
2022-10-07T04:15:53.779Z,17.90
2022-10-07T04:18:20.958Z,23.77
2022-10-07T04:20:47.802Z,17.80
2022-10-07T04:23:14.682Z,17.00
2022-10-07T04:25:44.990Z,14.73
2022-10-07T04:28:18.032Z,21.03
2022-10-07T04:30:45.235Z,17.70
2022-10-07T04:33:12.315Z,22.67
2022-10-07T04:35:39.742Z,16.80
2022-10-07T04:38:09.266Z,21.70
2022-10-07T04:40:56.385Z,19.73
2022-10-07T04:43:23.656Z,19.30
2022-10-07T04:45:52.830Z,16.00
2022-10-07T04:48:20.937Z,18.37
2022-10-07T04:50:47.818Z,20.83
2022-10-07T04:53:15.457Z,22.60
2022-10-07T04:55:46.656Z,23.27
2022-10-07T04:58:14.702Z,19.63
2022-10-07T05:00:46.619Z,11.47
2022-10-07T05:03:14.966Z,23.03
2022-10-07T05:05:45.822Z,21.53
2022-10-07T05:08:16.520Z,18.10
2022-10-07T05:10:43.502Z,14.50
2022-10-07T05:13:12.505Z,18.00
2022-10-07T05:15:48.873Z,18.87
2022-10-07T05:18:15.779Z,21.60
2022-10-07T05:20:43.451Z,22.30
2022-10-07T05:23:10.290Z,15.47
2022-10-07T05:25:37.128Z,20.93
2022-10-07T05:28:03.989Z,17.13
2022-10-07T05:30:30.833Z,19.00
2022-10-07T05:32:57.602Z,18.47
2022-10-07T05:35:24.409Z,15.10
2022-10-07T05:37:54.238Z,20.27
2022-10-07T05:40:21.412Z,13.07
2022-10-07T05:42:48.222Z,20.23
2022-10-07T05:45:15.141Z,26.20
2022-10-07T05:47:42.391Z,18.17
2022-10-07T05:50:09.797Z,19.90
2022-10-07T05:52:36.642Z,19.10
2022-10-07T05:55:03.869Z,23.50
2022-10-07T05:57:30.628Z,14.37
2022-10-07T05:59:58.975Z,21.63
2022-10-07T06:02:26.101Z,16.07
2022-10-07T06:04:52.917Z,17.17
2022-10-07T06:07:21.993Z,18.73
2022-10-07T06:10:08.262Z,20.30
2022-10-07T06:12:53.659Z,18.03
2022-10-07T06:15:20.401Z,18.37
2022-10-07T06:17:47.690Z,18.03
2022-10-07T06:20:15.212Z,15.43
2022-10-07T06:22:44.221Z,17.13
2022-10-07T06:25:11.017Z,15.23
2022-10-07T06:27:37.783Z,19.13
2022-10-07T06:30:05.387Z,17.60
2022-10-07T06:32:32.753Z,21.80
2022-10-07T06:34:59.654Z,13.03
2022-10-07T06:37:26.470Z,20.33
2022-10-07T06:39:57.388Z,18.93
2022-10-07T06:42:26.411Z,20.67
2022-10-07T06:44:53.983Z,20.47
2022-10-07T06:47:21.471Z,14.60
2022-10-07T06:49:48.381Z,17.03
2022-10-07T06:52:15.178Z,20.87
2022-10-07T06:54:42.075Z,24.63
2022-10-07T06:57:32.988Z,18.83
2022-10-07T06:59:55.783Z,20.27
2022-10-07T07:02:25.177Z,17.87
2022-10-07T07:04:55.331Z,23.17
2022-10-07T07:07:24.688Z,17.50
2022-10-07T07:09:51.821Z,19.43
2022-10-07T07:12:18.601Z,18.23
2022-10-07T07:14:45.539Z,21.10
2022-10-07T07:17:12.422Z,22.50
2022-10-07T07:19:39.233Z,18.90
2022-10-07T07:22:08.216Z,16.90
2022-10-07T07:24:35.142Z,24.33
2022-10-07T07:27:01.999Z,20.47
2022-10-07T07:29:28.824Z,18.90
2022-10-07T07:31:55.580Z,16.40
2022-10-07T07:34:22.489Z,16.73
2022-10-07T07:36:51.330Z,17.43
2022-10-07T07:39:18.602Z,15.53
2022-10-07T07:41:48.544Z,13.50
2022-10-07T07:44:16.079Z,15.15
2022-10-07T07:46:48.571Z,19.50
2022-10-07T07:49:15.838Z,13.43
2022-10-07T07:51:43.097Z,21.37
2022-10-07T07:54:10.668Z,13.63
2022-10-07T07:56:37.551Z,16.52
2022-10-07T07:59:04.707Z,18.23
2022-10-07T08:01:32.102Z,15.15
2022-10-07T08:04:00.899Z,15.60
2022-10-07T08:06:28.318Z,17.13
2022-10-07T08:08:57.373Z,13.85
2022-10-07T08:11:24.380Z,20.73
2022-10-07T08:13:51.647Z,15.40
2022-10-07T08:16:20.354Z,16.80
2022-10-07T08:18:48.491Z,16.93
2022-10-07T08:21:18.228Z,13.60
2022-10-07T08:23:45.052Z,13.43
2022-10-07T08:26:11.831Z,17.87
2022-10-07T08:28:39.403Z,12.70
2022-10-07T08:31:07.838Z,19.30
2022-10-07T08:33:37.004Z,17.38
2022-10-07T08:36:04.585Z,17.73
2022-10-07T08:38:32.455Z,18.20
2022-10-07T08:41:21.041Z,17.23
2022-10-07T08:43:49.355Z,14.55
2022-10-07T08:46:18.239Z,14.43
2022-10-07T08:48:50.367Z,23.13
2022-10-07T08:51:34.310Z,13.88
2022-10-07T08:54:01.115Z,17.30
2022-10-07T08:56:28.681Z,13.52
2022-10-07T08:59:24.659Z,11.13
2022-10-07T09:02:17.011Z,16.63
2022-10-07T09:04:54.687Z,15.45
2022-10-07T09:07:25.117Z,16.58
2022-10-07T09:09:57.859Z,15.10
2022-10-07T09:12:35.168Z,16.00
2022-10-07T09:15:01.983Z,11.63
2022-10-07T09:17:52.438Z,11.93
2022-10-07T09:20:20.376Z,17.23
2022-10-07T09:22:53.413Z,16.20
2022-10-07T09:25:27.883Z,14.55
2022-10-07T09:27:54.727Z,13.15
2022-10-07T09:30:22.906Z,11.65
2022-10-07T09:32:51.433Z,12.02
2022-10-07T09:35:20.130Z,10.20
2022-10-07T09:38:03.993Z,20.45
2022-10-07T09:40:57.922Z,20.10
2022-10-07T09:43:24.986Z,12.20
2022-10-07T09:45:51.935Z,13.77
2022-10-07T09:48:23.918Z,14.38
2022-10-07T09:50:50.742Z,14.75
2022-10-07T09:53:18.553Z,16.58
2022-10-07T09:55:45.560Z,13.70
2022-10-07T09:58:25.523Z,12.15
2022-10-07T10:00:59.665Z,12.30
2022-10-07T10:03:44.745Z,11.77
2022-10-07T10:06:12.591Z,12.32
2022-10-07T10:08:41.040Z,11.07
2022-10-07T10:11:25.841Z,15.48
2022-10-07T10:13:53.339Z,12.60
2022-10-07T10:16:29.960Z,14.55
2022-10-07T10:19:03.914Z,10.40
2022-10-07T10:21:55.109Z,13.93
2022-10-07T10:24:42.261Z,18.10
2022-10-07T10:27:34.669Z,13.88
2022-10-07T10:30:05.562Z,10.63
2022-10-07T10:32:59.659Z,14.52
2022-10-07T10:35:28.608Z,7.22
2022-10-07T10:38:11.008Z,12.48
2022-10-07T10:40:38.643Z,10.43
2022-10-07T10:43:35.279Z,11.20
2022-10-07T10:46:15.884Z,12.35
2022-10-07T10:49:26.095Z,12.38
2022-10-07T10:52:13.464Z,11.00
2022-10-07T10:54:50.777Z,10.70
2022-10-07T10:57:39.190Z,12.98
2022-10-07T11:00:13.121Z,12.45
2022-10-07T11:02:53.920Z,14.43
2022-10-07T11:05:25.292Z,13.25
2022-10-07T11:08:01.967Z,15.30
2022-10-07T11:10:43.502Z,18.52
2022-10-07T11:13:32.898Z,15.68
2022-10-07T11:16:17.604Z,10.85
2022-10-07T11:18:54.165Z,11.90
2022-10-07T11:21:26.124Z,18.42
2022-10-07T11:24:29.473Z,13.13
2022-10-07T11:27:07.869Z,11.70
2022-10-07T11:29:42.706Z,15.05
2022-10-07T11:32:14.112Z,7.45
2022-10-07T11:34:54.815Z,10.48
2022-10-07T11:37:21.670Z,8.60
2022-10-07T11:39:49.429Z,10.27
2022-10-07T11:42:17.551Z,11.27
2022-10-07T11:45:10.510Z,11.90
2022-10-07T11:47:46.203Z,10.50
2022-10-07T11:50:17.837Z,12.73
2022-10-07T11:52:46.948Z,6.93
2022-10-07T11:55:28.878Z,9.95
2022-10-07T11:57:56.958Z,12.63
2022-10-07T12:00:28.772Z,8.77
2022-10-07T12:02:56.546Z,12.60
2022-10-07T12:05:35.642Z,8.65
2022-10-07T12:08:03.138Z,13.15
2022-10-07T12:10:31.964Z,10.40
2022-10-07T12:13:10.780Z,9.05
2022-10-07T12:15:42.592Z,14.05
2022-10-07T12:18:24.163Z,8.73
2022-10-07T12:20:51.026Z,8.07
2022-10-07T12:23:22.021Z,10.93
2022-10-07T12:25:50.275Z,9.18
2022-10-07T12:28:40.125Z,9.52
2022-10-07T12:31:15.392Z,6.90
2022-10-07T12:33:45.343Z,8.90
2022-10-07T12:36:21.392Z,11.18
2022-10-07T12:38:57.562Z,11.30
2022-10-07T12:41:27.164Z,9.85
2022-10-07T12:44:20.834Z,12.75
2022-10-07T12:47:18.271Z,12.55
2022-10-07T12:49:48.907Z,10.57
2022-10-07T12:52:23.265Z,16.00
2022-10-07T12:54:56.901Z,9.55
2022-10-07T12:57:25.706Z,10.77
2022-10-07T13:00:14.279Z,12.02
2022-10-07T13:03:08.453Z,9.45
2022-10-07T13:05:47.387Z,13.00
2022-10-07T13:08:51.620Z,11.32
2022-10-07T13:11:27.306Z,8.70
2022-10-07T13:14:30.990Z,9.15
2022-10-07T13:17:33.067Z,7.80
2022-10-07T13:20:36.753Z,11.48
2022-10-07T13:23:23.345Z,11.50
2022-10-07T13:25:53.669Z,8.75
2022-10-07T13:28:22.477Z,10.25
2022-10-07T13:30:50.422Z,9.38
2022-10-07T13:33:31.350Z,7.93
2022-10-07T13:36:34.258Z,6.20
2022-10-07T13:39:12.309Z,7.10
2022-10-07T13:41:40.643Z,7.55
2022-10-07T13:44:07.464Z,7.97
2022-10-07T13:46:34.930Z,9.13
2022-10-07T13:49:01.769Z,9.20
2022-10-07T13:51:36.024Z,8.13
2022-10-07T13:54:19.902Z,8.60
2022-10-07T13:56:47.672Z,7.35
2022-10-07T13:59:21.118Z,7.68
2022-10-07T14:01:52.410Z,7.88
2022-10-07T14:04:33.790Z,9.82
2022-10-07T14:07:01.587Z,7.38
2022-10-07T14:09:56.129Z,6.25
2022-10-07T14:12:31.490Z,9.68
2022-10-07T14:15:03.562Z,6.72
2022-10-07T14:17:49.514Z,9.35
2022-10-07T14:20:36.685Z,9.95
2022-10-07T14:23:16.971Z,7.88
2022-10-07T14:25:57.799Z,11.48
2022-10-07T14:28:24.680Z,7.93
2022-10-07T14:31:25.537Z,8.00
2022-10-07T14:34:31.410Z,10.10
2022-10-07T14:37:04.175Z,11.13
2022-10-07T14:39:37.942Z,13.60
2022-10-07T14:42:06.047Z,11.05
2022-10-07T14:44:32.905Z,7.60
2022-10-07T14:47:13.458Z,8.73
2022-10-07T14:49:43.465Z,9.85
2022-10-07T14:52:20.613Z,7.75
2022-10-07T14:54:47.465Z,9.02
2022-10-07T14:57:14.258Z,11.30
2022-10-07T14:59:41.060Z,9.20
2022-10-07T15:02:07.852Z,6.60
2022-10-07T15:04:34.675Z,7.13
2022-10-07T15:07:01.968Z,8.63
2022-10-07T15:09:28.772Z,6.93
2022-10-07T15:11:56.242Z,10.10
2022-10-07T15:14:23.018Z,7.20
2022-10-07T15:16:50.443Z,9.32
2022-10-07T15:19:17.307Z,6.70
2022-10-07T15:21:44.449Z,7.82
2022-10-07T15:24:11.202Z,10.90
2022-10-07T15:26:39.230Z,8.85
2022-10-07T15:29:07.896Z,7.10
2022-10-07T15:31:34.980Z,10.38
2022-10-07T15:34:01.888Z,9.07
2022-10-07T15:36:32.646Z,10.60
2022-10-07T15:39:02.660Z,7.13
2022-10-07T15:41:34.504Z,9.75
2022-10-07T15:44:03.327Z,6.75
2022-10-07T15:46:31.050Z,7.78
2022-10-07T15:48:59.188Z,6.95
2022-10-07T15:51:26.499Z,7.88
2022-10-07T15:53:53.910Z,8.98
2022-10-07T15:56:20.910Z,8.48
2022-10-07T15:58:47.926Z,12.82
2022-10-07T16:01:15.528Z,6.13
2022-10-07T16:03:43.835Z,8.10
2022-10-07T16:06:14.342Z,8.40
2022-10-07T16:08:41.224Z,12.13
2022-10-07T16:11:09.290Z,6.43
2022-10-07T16:13:37.002Z,9.00
2022-10-07T16:16:07.114Z,11.35
2022-10-07T16:18:36.785Z,6.75
2022-10-07T16:21:10.092Z,9.93
2022-10-07T16:23:37.834Z,11.73
2022-10-07T16:26:12.197Z,9.98
2022-10-07T16:28:58.445Z,8.88
2022-10-07T16:31:25.557Z,9.30
2022-10-07T16:33:52.938Z,11.35
2022-10-07T16:36:20.806Z,18.45
2022-10-07T16:38:48.070Z,11.32
2022-10-07T16:41:14.860Z,12.50
2022-10-07T16:43:41.712Z,9.20
2022-10-07T16:46:11.270Z,14.38
2022-10-07T16:48:39.102Z,10.38
2022-10-07T16:51:12.011Z,6.32
2022-10-07T16:53:39.411Z,7.53
2022-10-07T16:56:06.786Z,12.80
2022-10-07T16:58:33.868Z,11.02
2022-10-07T17:01:11.122Z,8.23
2022-10-07T17:03:39.652Z,9.65
2022-10-07T17:06:12.954Z,9.82
2022-10-07T17:08:42.874Z,7.50
2022-10-07T17:11:28.600Z,13.90
2022-10-07T17:13:59.093Z,11.73
2022-10-07T17:16:26.319Z,12.02
2022-10-07T17:18:53.270Z,12.75
2022-10-07T17:21:20.247Z,10.50
2022-10-07T17:23:47.857Z,14.15
2022-10-07T17:26:15.548Z,10.95
2022-10-07T17:28:42.722Z,8.85
2022-10-07T17:31:11.904Z,12.98
2022-10-07T17:33:42.770Z,8.98
2022-10-07T17:36:10.718Z,13.38
2022-10-07T17:38:44.424Z,12.95
2022-10-07T17:41:28.073Z,9.63
2022-10-07T17:43:56.137Z,11.90
2022-10-07T17:46:24.024Z,13.55
2022-10-07T17:48:54.519Z,8.48
2022-10-07T17:51:21.954Z,9.50
2022-10-07T17:53:52.682Z,15.02
2022-10-07T17:56:19.630Z,10.68
2022-10-07T17:58:47.461Z,11.85
2022-10-07T18:01:20.952Z,12.38
2022-10-07T18:03:52.175Z,9.85
2022-10-07T18:06:19.086Z,12.02
2022-10-07T18:08:46.074Z,9.80
2022-10-07T18:11:12.861Z,8.40
2022-10-07T18:13:58.062Z,15.43
2022-10-07T18:16:25.021Z,13.48
2022-10-07T18:18:55.457Z,9.85
2022-10-07T18:21:23.230Z,11.35
2022-10-07T18:23:51.017Z,9.57
2022-10-07T18:26:18.809Z,9.45
2022-10-07T18:28:48.689Z,11.68
2022-10-07T18:31:16.338Z,12.00
2022-10-07T18:33:44.826Z,11.23
2022-10-07T18:36:14.015Z,6.97
2022-10-07T18:38:41.869Z,12.50
2022-10-07T18:41:10.406Z,11.90
2022-10-07T18:43:37.569Z,7.60
2022-10-07T18:46:06.556Z,11.70
2022-10-07T18:48:34.371Z,12.40
2022-10-07T18:51:01.588Z,17.27
2022-10-07T18:53:31.643Z,14.67
2022-10-07T18:56:02.155Z,13.38
2022-10-07T18:58:29.042Z,12.60
2022-10-07T19:00:55.910Z,12.98
2022-10-07T19:03:22.875Z,8.60
2022-10-07T19:05:49.728Z,13.32
2022-10-07T19:08:16.564Z,13.10
2022-10-07T19:10:43.419Z,11.52
2022-10-07T19:13:32.304Z,13.60
2022-10-07T19:16:03.424Z,14.25
2022-10-07T19:18:33.266Z,14.60
2022-10-07T19:21:00.304Z,10.18
2022-10-07T19:23:27.744Z,15.15
2022-10-07T19:25:58.698Z,14.68
2022-10-07T19:28:25.962Z,14.07
2022-10-07T19:30:53.497Z,14.30
2022-10-07T19:33:20.418Z,10.52
2022-10-07T19:35:47.401Z,12.57
2022-10-07T19:38:14.184Z,12.45
2022-10-07T19:40:41.685Z,13.25
2022-10-07T19:43:10.765Z,11.50
2022-10-07T19:45:38.929Z,9.65
2022-10-07T19:48:09.382Z,13.55
2022-10-07T19:50:40.290Z,14.32
2022-10-07T19:53:07.110Z,13.13
2022-10-07T19:55:34.187Z,12.73
2022-10-07T19:58:02.124Z,12.45
2022-10-07T20:00:29.678Z,19.80
2022-10-07T20:02:57.071Z,10.55
2022-10-07T20:05:24.531Z,26.70
2022-10-07T20:07:51.663Z,13.75
2022-10-07T20:10:18.787Z,17.98
2022-10-07T20:12:45.628Z,10.45
2022-10-07T20:15:13.962Z,12.25
2022-10-07T20:17:41.662Z,13.23
2022-10-07T20:20:09.697Z,11.40
2022-10-07T20:22:36.772Z,14.30
2022-10-07T20:25:05.232Z,13.00
2022-10-07T20:27:32.773Z,20.48
2022-10-07T20:29:59.992Z,14.70
2022-10-07T20:32:28.120Z,14.30
2022-10-07T20:34:55.039Z,12.37
2022-10-07T20:37:21.883Z,11.13
2022-10-07T20:40:07.561Z,11.40
2022-10-07T20:42:34.673Z,12.80
2022-10-07T20:45:03.423Z,21.17
2022-10-07T20:47:32.164Z,15.10
2022-10-07T20:50:02.117Z,12.87
2022-10-07T20:52:30.983Z,14.57
2022-10-07T20:54:57.764Z,12.43
2022-10-07T20:57:28.999Z,11.17
2022-10-07T20:59:55.973Z,15.23
2022-10-07T21:02:23.266Z,15.93
2022-10-07T21:04:50.134Z,11.87
2022-10-07T21:07:17.577Z,13.50
2022-10-07T21:09:44.542Z,23.13
2022-10-07T21:12:13.903Z,12.27
2022-10-07T21:14:42.247Z,11.93
2022-10-07T21:17:09.442Z,18.97
2022-10-07T21:19:36.434Z,12.07
2022-10-07T21:22:04.037Z,10.83
2022-10-07T21:24:34.372Z,11.63
2022-10-07T21:27:05.345Z,17.67
2022-10-07T21:29:32.343Z,18.83
2022-10-07T21:32:00.067Z,6.97
2022-10-07T21:34:27.069Z,15.83
2022-10-07T21:36:54.138Z,14.48
2022-10-07T21:39:21.119Z,11.43
2022-10-07T21:41:49.186Z,13.63
2022-10-07T21:44:16.136Z,13.57
2022-10-07T21:46:45.557Z,16.55
2022-10-07T21:49:13.817Z,20.15
2022-10-07T21:51:40.758Z,16.38
2022-10-07T21:54:07.747Z,19.00
2022-10-07T21:56:34.925Z,13.18
2022-10-07T21:59:03.978Z,18.30
2022-10-07T22:01:32.210Z,15.50
2022-10-07T22:04:02.708Z,18.15
2022-10-07T22:06:49.097Z,16.60
2022-10-07T22:09:16.421Z,10.73
2022-10-07T22:11:43.203Z,14.35
2022-10-07T22:14:12.839Z,17.23
2022-10-07T22:16:40.152Z,11.60
2022-10-07T22:19:07.118Z,15.23
2022-10-07T22:21:35.801Z,10.35
2022-10-07T22:24:04.577Z,17.13
2022-10-07T22:26:33.571Z,17.70
2022-10-07T22:29:00.407Z,22.13
2022-10-07T22:31:27.292Z,16.38
2022-10-07T22:33:55.735Z,16.50
2022-10-07T22:36:22.727Z,22.37
2022-10-07T22:38:49.605Z,19.10
2022-10-07T22:41:17.593Z,17.70
2022-10-07T22:43:45.530Z,13.98
2022-10-07T22:46:13.900Z,14.50
2022-10-07T22:48:43.468Z,17.63
2022-10-07T22:51:11.765Z,15.07
2022-10-07T22:53:40.231Z,19.13
2022-10-07T22:56:11.415Z,13.23
2022-10-07T22:58:39.318Z,19.20
2022-10-07T23:01:07.321Z,15.77
2022-10-07T23:03:36.261Z,14.00
2022-10-07T23:06:03.577Z,17.97
2022-10-07T23:08:32.220Z,20.43
2022-10-07T23:10:59.410Z,19.60
2022-10-07T23:13:26.954Z,16.57
2022-10-07T23:16:01.280Z,14.87
2022-10-07T23:18:28.459Z,19.13
2022-10-07T23:21:05.706Z,13.10
2022-10-07T23:23:36.488Z,11.23
2022-10-07T23:26:05.370Z,12.40
2022-10-07T23:28:34.332Z,12.97
2022-10-07T23:31:08.001Z,19.50
2022-10-07T23:33:35.318Z,15.23
2022-10-07T23:36:05.349Z,10.70
2022-10-07T23:38:32.715Z,16.90
2022-10-07T23:41:00.331Z,12.63
2022-10-07T23:43:27.798Z,12.77
2022-10-07T23:45:54.602Z,13.57
2022-10-07T23:48:21.395Z,13.77
2022-10-07T23:50:49.313Z,11.07
2022-10-07T23:53:17.359Z,13.87
2022-10-07T23:55:51.222Z,16.40
2022-10-07T23:58:19.868Z,18.23
